createdAt,value
2024-05-09T00:01:14.106Z,60.48
2024-05-09T00:03:47.347Z,56.96
2024-05-09T00:06:18.332Z,60.23
2024-05-09T00:08:49.255Z,63.78
2024-05-09T00:11:23.609Z,65.38
2024-05-09T00:13:54.752Z,62.61
2024-05-09T00:16:25.807Z,57.65
2024-05-09T00:18:56.840Z,51.85
2024-05-09T00:21:27.810Z,57.56
2024-05-09T00:24:01.073Z,57.08
2024-05-09T00:26:32.097Z,50.04
2024-05-09T00:29:03.139Z,55.09
2024-05-09T00:31:36.459Z,57.84
2024-05-09T00:34:07.538Z,58.25
2024-05-09T00:36:38.497Z,58.01
2024-05-09T00:39:09.478Z,59.53
2024-05-09T00:41:40.490Z,58.95
2024-05-09T00:44:11.546Z,58.19
2024-05-09T00:46:42.788Z,56.19
2024-05-09T00:49:15.212Z,65.05
2024-05-09T00:51:46.190Z,67.97
2024-05-09T00:54:19.816Z,64.77
2024-05-09T00:56:52.450Z,65.11
2024-05-09T00:59:23.659Z,61.23
2024-05-09T01:01:54.778Z,65.06
2024-05-09T01:04:28.458Z,66.89
2024-05-09T01:06:59.458Z,69.30
2024-05-09T01:09:30.487Z,67.23
2024-05-09T01:12:03.657Z,64.29
2024-05-09T01:14:37.240Z,63.32
2024-05-09T01:17:08.830Z,62.93
2024-05-09T01:19:42.262Z,64.08
2024-05-09T01:22:16.259Z,67.78
2024-05-09T01:24:49.624Z,58.64
2024-05-09T01:27:20.805Z,62.27
2024-05-09T01:29:51.799Z,65.29
2024-05-09T01:32:22.975Z,61.27
2024-05-09T01:34:54.140Z,60.64
2024-05-09T01:37:27.569Z,62.65
2024-05-09T01:40:01.875Z,66.30
2024-05-09T01:42:37.910Z,63.62
2024-05-09T01:45:12.265Z,56.08
2024-05-09T01:47:48.704Z,54.23
2024-05-09T01:50:28.985Z,62.09
2024-05-09T01:53:10.264Z,55.57
2024-05-09T01:55:42.183Z,56.05
2024-05-09T01:58:13.156Z,58.53
2024-05-09T02:00:46.412Z,58.92
2024-05-09T02:03:20.051Z,55.91
2024-05-09T02:05:51.596Z,61.22
2024-05-09T02:08:25.916Z,56.51
2024-05-09T02:10:56.918Z,64.51
2024-05-09T02:13:27.974Z,66.89
2024-05-09T02:16:03.977Z,61.48
2024-05-09T02:18:35.071Z,60.23
2024-05-09T02:21:06.946Z,60.53
2024-05-09T02:23:37.995Z,54.51
2024-05-09T02:26:09.143Z,55.85
2024-05-09T02:28:44.309Z,64.95
2024-05-09T02:31:16.274Z,59.98
2024-05-09T02:33:47.705Z,59.36
2024-05-09T02:36:20.141Z,67.10
2024-05-09T02:38:53.477Z,53.97
2024-05-09T02:41:27.036Z,58.07
2024-05-09T02:44:00.123Z,58.43
2024-05-09T02:46:35.384Z,62.31
2024-05-09T02:49:06.490Z,61.64
2024-05-09T02:51:37.528Z,55.43
2024-05-09T02:54:12.608Z,57.09
2024-05-09T02:56:46.053Z,57.09
2024-05-09T02:59:17.010Z,57.82
2024-05-09T03:01:53.929Z,58.97
2024-05-09T03:04:25.195Z,61.24
2024-05-09T03:06:58.417Z,58.83
2024-05-09T03:09:29.371Z,62.34
2024-05-09T03:12:00.413Z,58.93
2024-05-09T03:14:34.415Z,57.77
2024-05-09T03:17:08.233Z,57.81
2024-05-09T03:19:39.285Z,59.26
2024-05-09T03:22:12.422Z,59.40
2024-05-09T03:24:46.534Z,58.93
2024-05-09T03:27:19.978Z,61.10
2024-05-09T03:29:53.990Z,59.93
2024-05-09T03:32:25.025Z,68.02
2024-05-09T03:34:58.368Z,59.59
2024-05-09T03:37:29.330Z,59.87
2024-05-09T03:40:02.957Z,65.72
2024-05-09T03:42:33.996Z,60.32
2024-05-09T03:45:08.361Z,60.42
2024-05-09T03:47:39.488Z,61.15
2024-05-09T03:50:21.966Z,65.47
2024-05-09T03:52:56.908Z,63.69
2024-05-09T03:55:30.905Z,62.86
2024-05-09T03:58:01.901Z,62.13
2024-05-09T04:00:38.898Z,65.11
2024-05-09T04:03:13.854Z,63.81
2024-05-09T04:05:48.062Z,71.97
2024-05-09T04:08:22.010Z,70.25
2024-05-09T04:10:55.654Z,66.20
2024-05-09T04:13:28.944Z,73.07
2024-05-09T04:16:02.418Z,77.66
2024-05-09T04:18:33.421Z,76.11
2024-05-09T04:21:10.443Z,78.77
2024-05-09T04:23:44.301Z,82.03
2024-05-09T04:26:17.394Z,81.46
2024-05-09T04:28:50.788Z,78.19
2024-05-09T04:31:21.849Z,81.99
2024-05-09T04:33:55.526Z,77.39
2024-05-09T04:36:28.673Z,77.64
2024-05-09T04:39:02.656Z,76.35
2024-05-09T04:41:36.324Z,78.23
2024-05-09T04:44:07.288Z,72.01
2024-05-09T04:46:39.768Z,77.56
2024-05-09T04:49:10.744Z,77.45
2024-05-09T04:51:41.845Z,71.65
2024-05-09T04:54:26.118Z,71.00
2024-05-09T04:57:07.058Z,66.68
2024-05-09T04:59:38.084Z,74.75
2024-05-09T05:02:11.377Z,69.98
2024-05-09T05:04:42.573Z,66.35
2024-05-09T05:07:14.788Z,69.61
2024-05-09T05:09:46.766Z,73.78
2024-05-09T05:12:36.706Z,71.29
2024-05-09T05:15:07.883Z,72.95
2024-05-09T05:17:41.782Z,67.93
2024-05-09T05:20:24.347Z,68.37
2024-05-09T05:23:02.017Z,75.99
2024-05-09T05:25:33.104Z,78.71
2024-05-09T05:28:06.237Z,82.80
2024-05-09T05:30:40.467Z,79.97
2024-05-09T05:33:20.279Z,80.62
2024-05-09T05:35:51.524Z,77.38
2024-05-09T05:38:26.076Z,90.07
2024-05-09T05:41:00.995Z,87.12
2024-05-09T05:43:32.081Z,92.02
2024-05-09T05:46:06.041Z,93.35
2024-05-09T05:48:39.548Z,88.68
2024-05-09T05:51:10.749Z,93.09
2024-05-09T05:53:44.714Z,99.15
2024-05-09T05:56:15.805Z,91.40
2024-05-09T05:58:52.264Z,97.31
2024-05-09T06:01:23.273Z,111.05
2024-05-09T06:03:56.703Z,114.79
2024-05-09T06:06:27.891Z,114.43
2024-05-09T06:09:01.705Z,112.17
2024-05-09T06:11:35.186Z,122.47
2024-05-09T06:14:06.258Z,134.57
2024-05-09T06:16:39.955Z,136.10
2024-05-09T06:19:14.133Z,128.89
2024-05-09T06:21:45.274Z,123.31
2024-05-09T06:24:26.871Z,124.65
2024-05-09T06:27:01.222Z,130.07
2024-05-09T06:29:35.845Z,119.59
2024-05-09T06:32:09.328Z,119.69
2024-05-09T06:34:46.497Z,132.29
2024-05-09T06:37:20.546Z,122.18
2024-05-09T06:39:51.545Z,126.60
2024-05-09T06:42:22.595Z,128.23
2024-05-09T06:45:15.955Z,134.75
2024-05-09T06:47:49.918Z,135.58
2024-05-09T06:50:24.575Z,132.89
2024-05-09T06:53:03.739Z,129.63
2024-05-09T06:55:36.267Z,123.19
2024-05-09T06:58:11.191Z,132.40
2024-05-09T07:00:46.763Z,122.01
2024-05-09T07:03:19.191Z,122.31
2024-05-09T07:05:55.103Z,115.20
2024-05-09T07:08:31.078Z,120.07
2024-05-09T07:11:04.609Z,120.02
2024-05-09T07:13:38.416Z,124.00
2024-05-09T07:16:09.457Z,115.91
2024-05-09T07:18:40.930Z,117.07
2024-05-09T07:21:12.109Z,111.77
2024-05-09T07:23:45.393Z,110.83
2024-05-09T07:26:18.310Z,110.80
2024-05-09T07:28:49.368Z,114.39
2024-05-09T07:31:20.399Z,117.49
2024-05-09T07:33:51.520Z,115.77
2024-05-09T07:36:23.493Z,121.33
2024-05-09T07:38:54.412Z,115.15
2024-05-09T07:41:25.397Z,111.01
2024-05-09T07:43:56.472Z,117.23
2024-05-09T07:47:36.496Z,115.30
2024-05-09T07:51:31.617Z,108.09
2024-05-09T07:53:29.337Z,104.85
2024-05-09T07:55:04.800Z,99.89
2024-05-09T07:57:35.966Z,94.40
2024-05-09T08:00:08.327Z,104.96
2024-05-09T08:02:42.559Z,93.29
2024-05-09T08:05:13.667Z,93.47
2024-05-09T08:07:46.954Z,86.95
2024-05-09T08:10:22.178Z,88.83
2024-05-09T08:12:58.027Z,87.36
2024-05-09T08:15:29.795Z,90.57
2024-05-09T08:18:00.940Z,93.69
2024-05-09T08:20:35.216Z,85.27
2024-05-09T08:23:06.650Z,83.73
2024-05-09T08:25:39.785Z,88.09
2024-05-09T08:28:10.806Z,92.65
2024-05-09T08:30:41.947Z,87.06
2024-05-09T08:33:12.977Z,81.90
2024-05-09T08:35:44.035Z,83.27
2024-05-09T08:38:15.137Z,92.05
2024-05-09T08:40:49.747Z,94.13
2024-05-09T08:43:21.927Z,94.39
2024-05-09T08:45:53.015Z,89.43
2024-05-09T08:48:25.358Z,100.12
2024-05-09T08:50:59.287Z,98.60
2024-05-09T08:53:30.410Z,85.81
2024-05-09T08:56:03.773Z,97.67
2024-05-09T08:58:34.977Z,91.83
2024-05-09T09:01:09.380Z,87.74
2024-05-09T09:03:40.658Z,90.05
2024-05-09T09:06:15.120Z,94.39
2024-05-09T09:08:46.698Z,95.75
2024-05-09T09:11:17.682Z,92.11
2024-05-09T09:13:48.622Z,94.49
2024-05-09T09:16:19.786Z,92.78
2024-05-09T09:18:51.182Z,96.77
2024-05-09T09:21:22.208Z,90.45
2024-05-09T09:23:53.116Z,90.86
2024-05-09T09:26:24.752Z,80.54
2024-05-09T09:28:55.773Z,91.95
2024-05-09T09:31:26.756Z,92.25
2024-05-09T09:34:00.156Z,89.97
2024-05-09T09:36:33.008Z,84.02
2024-05-09T09:39:04.984Z,80.93
2024-05-09T09:41:39.234Z,83.00
2024-05-09T09:44:11.389Z,87.01
2024-05-09T09:46:43.001Z,76.47
2024-05-09T09:49:15.398Z,86.45
2024-05-09T09:51:48.220Z,76.62
2024-05-09T09:54:20.474Z,84.33
2024-05-09T09:56:53.562Z,81.60
2024-05-09T09:59:24.877Z,80.61
2024-05-09T10:01:56.042Z,77.39
2024-05-09T10:04:27.468Z,75.70
2024-05-09T10:07:05.344Z,72.39
2024-05-09T10:09:37.096Z,72.69
2024-05-09T10:12:18.125Z,72.25
2024-05-09T10:14:52.822Z,76.44
2024-05-09T10:17:23.862Z,67.75
2024-05-09T10:20:14.400Z,67.87
2024-05-09T10:22:52.098Z,63.09
2024-05-09T10:25:23.742Z,66.80
2024-05-09T10:27:57.678Z,67.70
2024-05-09T10:30:34.258Z,65.55
2024-05-09T10:33:12.196Z,70.82
2024-05-09T10:35:53.492Z,69.49
2024-05-09T10:38:24.599Z,62.03
2024-05-09T10:40:59.201Z,68.83
2024-05-09T10:43:30.497Z,67.70
2024-05-09T10:46:01.563Z,69.28
2024-05-09T10:48:33.010Z,64.13
2024-05-09T10:51:04.254Z,65.47
2024-05-09T10:53:42.764Z,65.02
2024-05-09T10:56:15.892Z,84.11
2024-05-09T10:58:48.118Z,78.59
2024-05-09T11:01:19.152Z,79.15
2024-05-09T11:03:51.096Z,85.13
2024-05-09T11:06:22.312Z,78.99
2024-05-09T11:08:53.940Z,82.69
2024-05-09T11:11:25.140Z,83.85
2024-05-09T11:13:56.089Z,80.72
2024-05-09T11:16:27.083Z,70.05
2024-05-09T11:18:59.529Z,70.15
2024-05-09T11:21:30.851Z,75.17
2024-05-09T11:24:01.789Z,78.32
2024-05-09T11:26:34.073Z,72.37
2024-05-09T11:29:04.979Z,72.11
2024-05-09T11:31:37.216Z,70.51
2024-05-09T11:34:08.260Z,73.98
2024-05-09T11:36:39.294Z,88.85
2024-05-09T11:39:10.562Z,87.96
2024-05-09T11:41:41.550Z,96.80
2024-05-09T11:44:13.144Z,93.09
2024-05-09T11:46:45.063Z,93.12
2024-05-09T11:49:16.103Z,99.07
2024-05-09T11:51:47.110Z,95.44
2024-05-09T11:54:18.379Z,93.60
2024-05-09T11:56:51.483Z,88.51
2024-05-09T11:59:22.423Z,92.15
2024-05-09T12:01:53.537Z,82.97
2024-05-09T12:04:25.701Z,89.36
2024-05-09T12:06:56.833Z,95.42
2024-05-09T12:09:27.850Z,91.43
2024-05-09T12:11:58.789Z,90.73
2024-05-09T12:14:29.790Z,89.37
2024-05-09T12:17:01.207Z,93.81
2024-05-09T12:19:32.371Z,84.84
2024-05-09T12:22:05.144Z,87.43
2024-05-09T12:24:36.195Z,95.18
2024-05-09T12:27:07.274Z,83.01
2024-05-09T12:29:38.967Z,85.15
2024-05-09T12:32:10.116Z,87.37
2024-05-09T12:34:41.139Z,90.88
2024-05-09T12:37:12.358Z,89.01
2024-05-09T12:39:43.366Z,89.83
2024-05-09T12:42:26.309Z,90.45
2024-05-09T12:44:59.014Z,89.13
2024-05-09T12:47:30.090Z,88.76
2024-05-09T12:50:01.269Z,93.40
2024-05-09T12:52:32.255Z,93.05
2024-05-09T12:55:03.233Z,91.69
2024-05-09T12:57:34.436Z,93.12
2024-05-09T13:00:05.863Z,97.10
2024-05-09T13:02:38.490Z,94.48
2024-05-09T13:05:10.435Z,95.70
2024-05-09T13:07:42.268Z,78.19
2024-05-09T13:10:19.753Z,95.14
2024-05-09T13:12:54.158Z,97.00
2024-05-09T13:15:25.128Z,93.78
2024-05-09T13:17:58.283Z,88.07
2024-05-09T13:20:34.088Z,92.03
2024-05-09T13:23:08.477Z,96.04
2024-05-09T13:25:39.955Z,101.18
2024-05-09T13:28:11.079Z,102.50
2024-05-09T13:30:42.588Z,104.10
2024-05-09T13:33:14.464Z,92.19
2024-05-09T13:35:49.637Z,105.41
2024-05-09T13:38:22.539Z,101.05
2024-05-09T13:40:53.599Z,97.22
2024-05-09T13:43:25.437Z,93.07
2024-05-09T13:45:57.949Z,86.79
2024-05-09T13:48:29.212Z,99.18
2024-05-09T13:51:00.337Z,96.79
2024-05-09T13:53:31.295Z,94.21
2024-05-09T13:56:02.300Z,92.21
2024-05-09T13:58:33.276Z,93.17
2024-05-09T14:01:04.406Z,89.11
2024-05-09T14:03:35.592Z,91.16
2024-05-09T14:06:09.446Z,94.81
2024-05-09T14:08:42.190Z,96.47
2024-05-09T14:11:13.184Z,93.19
2024-05-09T14:13:44.232Z,102.27
2024-05-09T14:16:15.691Z,98.14
2024-05-09T14:18:46.672Z,97.82
2024-05-09T14:21:17.665Z,103.97
2024-05-09T14:23:48.629Z,99.90
2024-05-09T14:26:19.895Z,96.62
2024-05-09T14:28:50.917Z,101.65
2024-05-09T14:31:22.961Z,108.33
2024-05-09T14:33:54.123Z,108.38
2024-05-09T14:36:25.234Z,103.62
2024-05-09T14:38:56.239Z,102.22
2024-05-09T14:41:27.157Z,97.13
2024-05-09T14:43:58.137Z,106.62
2024-05-09T14:46:29.313Z,102.93
2024-05-09T14:49:00.548Z,98.58
2024-05-09T14:51:31.613Z,107.75
2024-05-09T14:54:02.531Z,106.07
2024-05-09T14:56:33.710Z,91.21
2024-05-09T14:59:04.638Z,97.47
2024-05-09T15:01:35.636Z,95.21
2024-05-09T15:04:06.803Z,99.72
2024-05-09T15:06:40.974Z,100.24
2024-05-09T15:09:11.918Z,97.95
2024-05-09T15:11:43.908Z,92.59
2024-05-09T15:14:15.813Z,91.05
2024-05-09T15:16:48.512Z,94.40
2024-05-09T15:19:19.759Z,90.94
2024-05-09T15:21:50.849Z,80.25
2024-05-09T15:24:21.837Z,93.47
2024-05-09T15:26:52.769Z,99.26
2024-05-09T15:29:23.751Z,100.71
2024-05-09T15:31:54.684Z,93.37
2024-05-09T15:34:25.686Z,92.27
2024-05-09T15:36:56.764Z,92.71
2024-05-09T15:39:30.236Z,96.47
2024-05-09T15:42:01.287Z,96.86
2024-05-09T15:44:32.314Z,84.23
2024-05-09T15:47:03.234Z,80.82
2024-05-09T15:49:34.506Z,70.63
2024-05-09T15:52:05.597Z,82.93
2024-05-09T15:54:36.737Z,86.73
2024-05-09T15:57:08.409Z,95.20
2024-05-09T15:59:39.868Z,93.43
2024-05-09T16:02:11.551Z,98.51
2024-05-09T16:04:43.002Z,101.73
2024-05-09T16:07:14.270Z,95.93
2024-05-09T16:09:45.419Z,101.53
2024-05-09T16:12:16.362Z,97.75
2024-05-09T16:14:47.421Z,102.12
2024-05-09T16:17:18.708Z,99.59
2024-05-09T16:19:50.056Z,105.74
2024-05-09T16:22:21.075Z,108.53
2024-05-09T16:24:52.223Z,107.72
2024-05-09T16:27:23.176Z,103.77
2024-05-09T16:29:58.000Z,107.12
2024-05-09T16:32:28.972Z,109.61
2024-05-09T16:35:00.096Z,111.76
2024-05-09T16:37:31.125Z,111.45
2024-05-09T16:40:02.128Z,122.45
2024-05-09T16:42:33.376Z,109.63
2024-05-09T16:45:04.505Z,113.81
2024-05-09T16:47:35.774Z,120.67
2024-05-09T16:50:08.573Z,112.85
2024-05-09T16:52:39.726Z,119.88
2024-05-09T16:55:10.854Z,117.05
2024-05-09T16:57:42.324Z,130.09
2024-05-09T17:00:21.928Z,121.93
2024-05-09T17:03:01.138Z,137.97
2024-05-09T17:05:32.333Z,135.49
2024-05-09T17:08:03.442Z,137.19
2024-05-09T17:10:35.944Z,135.03
2024-05-09T17:13:08.288Z,124.80
2024-05-09T17:15:39.524Z,141.75
2024-05-09T17:18:11.096Z,148.90
2024-05-09T17:20:42.098Z,147.83
2024-05-09T17:23:14.087Z,144.77
2024-05-09T17:25:45.632Z,146.56
2024-05-09T17:28:16.808Z,143.91
2024-05-09T17:30:48.509Z,141.09
2024-05-09T17:33:19.712Z,143.39
2024-05-09T17:35:51.790Z,134.99
2024-05-09T17:38:23.678Z,145.42
2024-05-09T17:40:54.886Z,130.24
2024-05-09T17:43:26.027Z,133.83
2024-05-09T17:45:57.024Z,148.41
2024-05-09T17:48:28.197Z,146.19
2024-05-09T17:50:59.560Z,144.29
2024-05-09T17:53:30.469Z,152.85
2024-05-09T17:56:02.209Z,148.54
2024-05-09T17:58:33.223Z,149.19
2024-05-09T18:01:04.417Z,155.99
2024-05-09T18:03:35.621Z,156.66
2024-05-09T18:06:06.848Z,171.33
2024-05-09T18:08:37.889Z,169.39
2024-05-09T18:11:09.442Z,167.87
2024-05-09T18:13:40.421Z,155.01
2024-05-09T18:16:11.455Z,159.40
2024-05-09T18:18:42.819Z,159.36
2024-05-09T18:21:13.948Z,166.28
2024-05-09T18:23:44.907Z,151.88
2024-05-09T18:26:15.946Z,163.32
2024-05-09T18:28:47.306Z,170.37
2024-05-09T18:31:18.333Z,179.64
2024-05-09T18:33:49.456Z,166.43
2024-05-09T18:36:20.666Z,166.49
2024-05-09T18:38:51.643Z,172.74
2024-05-09T18:41:22.593Z,160.03
2024-05-09T18:43:56.040Z,165.25
2024-05-09T18:46:27.545Z,170.57
2024-05-09T18:48:58.615Z,158.20
2024-05-09T18:51:29.647Z,172.65
2024-05-09T18:54:00.582Z,166.33
2024-05-09T18:56:31.570Z,166.04
2024-05-09T18:59:02.480Z,171.69
2024-05-09T19:01:33.752Z,173.50
2024-05-09T19:04:05.072Z,168.28
2024-05-09T19:06:37.637Z,163.77
2024-05-09T19:09:08.598Z,176.79
2024-05-09T19:11:40.087Z,160.32
2024-05-09T19:14:11.358Z,164.02
2024-05-09T19:16:42.381Z,166.55
2024-05-09T19:19:14.946Z,169.09
2024-05-09T19:21:46.128Z,179.39
2024-05-09T19:24:17.222Z,164.25
2024-05-09T19:26:49.027Z,172.31
2024-05-09T19:29:19.970Z,177.84
2024-05-09T19:31:50.964Z,173.60
2024-05-09T19:34:24.407Z,167.59
2024-05-09T19:36:55.650Z,185.01
2024-05-09T19:39:26.681Z,171.51
2024-05-09T19:41:57.630Z,173.27
2024-05-09T19:44:28.562Z,181.56
2024-05-09T19:46:59.564Z,180.55
2024-05-09T19:49:31.953Z,185.82
2024-05-09T19:52:03.005Z,167.45
2024-05-09T19:54:34.052Z,155.89
2024-05-09T19:57:05.138Z,162.43
2024-05-09T19:59:36.065Z,164.45
2024-05-09T20:02:07.241Z,168.15
2024-05-09T20:04:45.587Z,149.29
2024-05-09T20:07:16.825Z,146.35
2024-05-09T20:09:47.956Z,154.23
2024-05-09T20:12:18.920Z,154.99
2024-05-09T20:14:49.914Z,151.83
2024-05-09T20:17:20.828Z,162.59
2024-05-09T20:19:51.812Z,171.95
2024-05-09T20:22:22.884Z,170.44
2024-05-09T20:24:53.894Z,171.61
2024-05-09T20:27:24.981Z,175.71
2024-05-09T20:29:55.965Z,165.85
2024-05-09T20:32:27.000Z,185.84
2024-05-09T20:34:59.045Z,179.55
2024-05-09T20:37:30.031Z,188.67
2024-05-09T20:40:01.066Z,202.91
2024-05-09T20:42:32.017Z,191.03
2024-05-09T20:45:03.408Z,181.69
2024-05-09T20:47:34.445Z,182.00
2024-05-09T20:50:11.354Z,183.81
2024-05-09T20:52:47.304Z,193.10
2024-05-09T20:55:18.338Z,181.39
2024-05-09T20:57:49.370Z,188.87
2024-05-09T21:00:26.167Z,195.70
2024-05-09T21:03:05.720Z,190.09
2024-05-09T21:05:39.184Z,198.52
2024-05-09T21:08:10.655Z,194.21
2024-05-09T21:10:41.872Z,182.61
2024-05-09T21:13:13.492Z,185.01
2024-05-09T21:15:44.710Z,172.23
2024-05-09T21:18:15.759Z,175.60
2024-05-09T21:20:46.724Z,183.27
2024-05-09T21:23:17.679Z,184.28
2024-05-09T21:25:48.768Z,187.61
2024-05-09T21:28:19.848Z,196.10
2024-05-09T21:30:50.954Z,185.40
2024-05-09T21:33:22.180Z,194.91
2024-05-09T21:35:53.388Z,182.87
2024-05-09T21:38:24.337Z,175.62
2024-05-09T21:40:58.095Z,176.27
2024-05-09T21:43:31.443Z,177.37
2024-05-09T21:46:02.706Z,177.53
2024-05-09T21:48:34.092Z,179.09
2024-05-09T21:51:05.916Z,192.23
2024-05-09T21:53:37.892Z,171.80
2024-05-09T21:56:10.566Z,192.07
2024-05-09T21:58:41.532Z,161.73
2024-05-09T22:01:12.601Z,153.64
2024-05-09T22:03:43.701Z,160.68
2024-05-09T22:06:14.699Z,172.97
2024-05-09T22:08:45.634Z,174.57
2024-05-09T22:11:16.580Z,165.15
2024-05-09T22:13:49.832Z,168.55
2024-05-09T22:16:20.855Z,156.76
2024-05-09T22:18:51.915Z,161.49
2024-05-09T22:21:22.938Z,157.66
2024-05-09T22:23:54.480Z,165.77
2024-05-09T22:26:25.483Z,165.38
2024-05-09T22:28:56.458Z,154.21
2024-05-09T22:31:27.583Z,159.99
2024-05-09T22:33:58.852Z,161.15
2024-05-09T22:36:30.129Z,147.93
2024-05-09T22:39:01.084Z,159.61
2024-05-09T22:41:32.006Z,145.68
2024-05-09T22:44:02.933Z,142.79
2024-05-09T22:46:34.058Z,150.31
2024-05-09T22:49:05.428Z,136.70
2024-05-09T22:51:36.466Z,148.11
2024-05-09T22:54:07.743Z,163.71
2024-05-09T22:56:39.831Z,156.21
2024-05-09T22:59:10.884Z,158.37
2024-05-09T23:01:41.936Z,154.83
2024-05-09T23:04:13.004Z,153.85
2024-05-09T23:06:44.246Z,158.09
2024-05-09T23:09:15.268Z,143.70
2024-05-09T23:11:48.674Z,154.31
2024-05-09T23:14:19.646Z,139.29
2024-05-09T23:16:50.631Z,156.25
2024-05-09T23:19:21.694Z,160.05
2024-05-09T23:21:52.663Z,150.37
2024-05-09T23:24:23.623Z,162.01
2024-05-09T23:26:54.602Z,150.19
2024-05-09T23:29:25.588Z,153.35
2024-05-09T23:31:56.523Z,159.67
2024-05-09T23:34:27.756Z,156.25
2024-05-09T23:36:58.869Z,172.76
2024-05-09T23:39:29.842Z,168.45
2024-05-09T23:42:00.766Z,176.96
2024-05-09T23:44:31.720Z,173.12
2024-05-09T23:47:02.670Z,167.91
2024-05-09T23:49:33.796Z,175.35
2024-05-09T23:52:04.876Z,181.41
2024-05-09T23:54:35.932Z,178.21
2024-05-09T23:57:06.980Z,170.67
2024-05-09T23:59:37.973Z,181.50
